sensor_id;sensor_type;location;lat;lon;timestamp;P1;durP1;ratioP1;P2;durP2;ratioP2
51304;SDS011;37392;50.964;6.952;2023-11-21T12:14:55;61.28;;;25.20;;
51304;SDS011;37392;50.964;6.952;2023-11-21T12:17:20;66.53;;;27.05;;
51304;SDS011;37392;50.964;6.952;2023-11-21T12:19:48;69.13;;;29.92;;
51304;SDS011;37392;50.964;6.952;2023-11-21T12:22:16;81.50;;;30.88;;
51304;SDS011;37392;50.964;6.952;2023-11-21T12:24:43;74.88;;;32.97;;
51304;SDS011;37392;50.964;6.952;2023-11-21T12:27:09;75.57;;;31.80;;
51304;SDS011;37392;50.964;6.952;2023-11-21T12:29:34;76.50;;;31.55;;
51304;SDS011;37392;50.964;6.952;2023-11-21T12:32:02;69.97;;;31.30;;
51304;SDS011;37392;50.964;6.952;2023-11-21T12:34:29;77.25;;;31.00;;
51304;SDS011;37392;50.964;6.952;2023-11-21T12:36:56;60.00;;;25.77;;
51304;SDS011;37392;50.964;6.952;2023-11-21T12:39:22;64.93;;;26.02;;
51304;SDS011;37392;50.964;6.952;2023-11-21T12:41:48;56.45;;;27.05;;
51304;SDS011;37392;50.964;6.952;2023-11-21T12:44:13;52.55;;;25.33;;
51304;SDS011;37392;50.964;6.952;2023-11-21T12:46:43;58.95;;;27.00;;
51304;SDS011;37392;50.964;6.952;2023-11-21T12:49:10;60.10;;;25.97;;
51304;SDS011;37392;50.964;6.952;2023-11-21T12:51:42;65.82;;;26.90;;
51304;SDS011;37392;50.964;6.952;2023-11-21T12:54:10;59.95;;;24.73;;
51304;SDS011;37392;50.964;6.952;2023-11-21T12:56:40;59.05;;;25.10;;
51304;SDS011;37392;50.964;6.952;2023-11-21T12:59:06;58.25;;;24.63;;
51304;SDS011;37392;50.964;6.952;2023-11-21T13:01:32;59.60;;;25.60;;
51304;SDS011;37392;50.964;6.952;2023-11-21T13:03:59;67.25;;;27.30;;
51304;SDS011;37392;50.964;6.952;2023-11-21T13:06:27;60.95;;;25.42;;
51304;SDS011;37392;50.964;6.952;2023-11-21T13:08:54;55.35;;;25.70;;
51304;SDS011;37392;50.964;6.952;2023-11-21T13:11:22;64.22;;;28.75;;
51304;SDS011;37392;50.964;6.952;2023-11-21T13:13:47;59.33;;;26.30;;
51304;SDS011;37392;50.964;6.952;2023-11-21T13:16:18;60.20;;;26.15;;
51304;SDS011;37392;50.964;6.952;2023-11-21T13:18:45;83.82;;;37.13;;
51304;SDS011;37392;50.964;6.952;2023-11-21T13:21:12;73.63;;;30.30;;
51304;SDS011;37392;50.964;6.952;2023-11-21T13:23:39;59.63;;;27.63;;
51304;SDS011;37392;50.964;6.952;2023-11-21T13:26:06;64.13;;;29.98;;
51304;SDS011;37392;50.964;6.952;2023-11-21T13:28:33;61.63;;;27.98;;
51304;SDS011;37392;50.964;6.952;2023-11-21T13:31:06;67.32;;;24.77;;
51304;SDS011;37392;50.964;6.952;2023-11-21T13:33:38;67.47;;;27.00;;
51304;SDS011;37392;50.964;6.952;2023-11-21T13:36:06;64.88;;;25.65;;
51304;SDS011;37392;50.964;6.952;2023-11-21T13:38:35;75.43;;;25.77;;
51304;SDS011;37392;50.964;6.952;2023-11-21T13:41:02;63.92;;;26.10;;
51304;SDS011;37392;50.964;6.952;2023-11-21T13:43:32;70.97;;;26.83;;
51304;SDS011;37392;50.964;6.952;2023-11-21T13:45:58;72.47;;;27.13;;
51304;SDS011;37392;50.964;6.952;2023-11-21T13:48:33;58.63;;;26.15;;
51304;SDS011;37392;50.964;6.952;2023-11-21T13:51:15;66.55;;;25.40;;
51304;SDS011;37392;50.964;6.952;2023-11-21T13:53:43;53.72;;;26.00;;
51304;SDS011;37392;50.964;6.952;2023-11-21T13:56:18;68.07;;;26.80;;
51304;SDS011;37392;50.964;6.952;2023-11-21T13:58:54;73.68;;;27.45;;
51304;SDS011;37392;50.964;6.952;2023-11-21T14:01:20;59.13;;;26.58;;
51304;SDS011;37392;50.964;6.952;2023-11-21T14:03:59;67.63;;;28.00;;
51304;SDS011;37392;50.964;6.952;2023-11-21T14:06:34;68.40;;;27.85;;
51304;SDS011;37392;50.964;6.952;2023-11-21T14:09:09;68.65;;;28.80;;
51304;SDS011;37392;50.964;6.952;2023-11-21T14:11:34;77.38;;;28.65;;
51304;SDS011;37392;50.964;6.952;2023-11-21T14:14:03;65.65;;;28.83;;
51304;SDS011;37392;50.964;6.952;2023-11-21T14:16:28;69.80;;;31.25;;
51304;SDS011;37392;50.964;6.952;2023-11-21T14:18:54;79.32;;;34.38;;
51304;SDS011;37392;50.964;6.952;2023-11-21T14:21:28;64.22;;;28.83;;
51304;SDS011;37392;50.964;6.952;2023-11-21T14:23:57;77.57;;;31.73;;
51304;SDS011;37392;50.964;6.952;2023-11-21T14:26:23;72.85;;;32.10;;
51304;SDS011;37392;50.964;6.952;2023-11-21T14:28:49;77.47;;;32.20;;
51304;SDS011;37392;50.964;6.952;2023-11-21T14:31:16;84.13;;;34.28;;
51304;SDS011;37392;50.964;6.952;2023-11-21T14:33:44;79.03;;;38.40;;
51304;SDS011;37392;50.964;6.952;2023-11-21T14:36:10;78.53;;;33.63;;
51304;SDS011;37392;50.964;6.952;2023-11-21T14:38:36;78.53;;;33.72;;
51304;SDS011;37392;50.964;6.952;2023-11-21T14:41:04;89.65;;;34.90;;
51304;SDS011;37392;50.964;6.952;2023-11-21T14:43:33;86.88;;;35.42;;
51304;SDS011;37392;50.964;6.952;2023-11-21T14:46:03;81.97;;;32.53;;
51304;SDS011;37392;50.964;6.952;2023-11-21T14:48:31;75.85;;;30.65;;
51304;SDS011;37392;50.964;6.952;2023-11-21T14:51:12;76.30;;;34.45;;
51304;SDS011;37392;50.964;6.952;2023-11-21T14:53:52;75.35;;;30.83;;
51304;SDS011;37392;50.964;6.952;2023-11-21T14:56:22;64.55;;;27.65;;
51304;SDS011;37392;50.964;6.952;2023-11-21T14:58:59;74.68;;;31.58;;
51304;SDS011;37392;50.964;6.952;2023-11-21T15:01:37;61.15;;;27.90;;
51304;SDS011;37392;50.964;6.952;2023-11-21T15:04:21;70.88;;;28.13;;
51304;SDS011;37392;50.964;6.952;2023-11-21T15:07:01;74.35;;;30.45;;
51304;SDS011;37392;50.964;6.952;2023-11-21T15:09:30;84.05;;;29.55;;
51304;SDS011;37392;50.964;6.952;2023-11-21T15:11:57;74.82;;;28.90;;
51304;SDS011;37392;50.964;6.952;2023-11-21T15:14:29;77.15;;;32.65;;
51304;SDS011;37392;50.964;6.952;2023-11-21T15:17:00;84.10;;;31.10;;
51304;SDS011;37392;50.964;6.952;2023-11-21T15:19:27;93.38;;;33.20;;
51304;SDS011;37392;50.964;6.952;2023-11-21T15:21:54;61.65;;;27.92;;
51304;SDS011;37392;50.964;6.952;2023-11-21T15:24:19;81.95;;;30.58;;
51304;SDS011;37392;50.964;6.952;2023-11-21T15:26:45;81.68;;;30.45;;
51304;SDS011;37392;50.964;6.952;2023-11-21T15:29:10;89.03;;;32.42;;
51304;SDS011;37392;50.964;6.952;2023-11-21T15:31:37;92.88;;;34.33;;
51304;SDS011;37392;50.964;6.952;2023-11-21T15:34:05;107.85;;;36.70;;
51304;SDS011;37392;50.964;6.952;2023-11-21T15:36:31;100.43;;;35.85;;
51304;SDS011;37392;50.964;6.952;2023-11-21T15:38:56;115.25;;;40.22;;
51304;SDS011;37392;50.964;6.952;2023-11-21T15:41:22;106.28;;;39.20;;
51304;SDS011;37392;50.964;6.952;2023-11-21T15:43:47;117.53;;;43.78;;
51304;SDS011;37392;50.964;6.952;2023-11-21T15:46:15;116.80;;;40.65;;
51304;SDS011;37392;50.964;6.952;2023-11-21T15:48:41;107.32;;;38.20;;
51304;SDS011;37392;50.964;6.952;2023-11-21T15:51:14;116.05;;;38.90;;
51304;SDS011;37392;50.964;6.952;2023-11-21T15:53:41;94.53;;;35.30;;
51304;SDS011;37392;50.964;6.952;2023-11-21T15:56:08;97.47;;;33.28;;
51304;SDS011;37392;50.964;6.952;2023-11-21T15:58:40;86.63;;;32.63;;
51304;SDS011;37392;50.964;6.952;2023-11-21T16:04:48;52.92;;;24.15;;
51304;SDS011;37392;50.964;6.952;2023-11-21T16:07:14;57.03;;;21.52;;
51304;SDS011;37392;50.964;6.952;2023-11-21T16:09:39;44.50;;;21.52;;
51304;SDS011;37392;50.964;6.952;2023-11-21T16:12:08;51.55;;;22.05;;
51304;SDS011;37392;50.964;6.952;2023-11-21T16:14:36;50.08;;;20.85;;
51304;SDS011;37392;50.964;6.952;2023-11-21T16:17:10;44.88;;;21.27;;
51304;SDS011;37392;50.964;6.952;2023-11-21T16:19:39;44.88;;;20.55;;
51304;SDS011;37392;50.964;6.952;2023-11-21T16:24:33;37.38;;;19.08;;
51304;SDS011;37392;50.964;6.952;2023-11-21T16:26:59;37.72;;;18.85;;
51304;SDS011;37392;50.964;6.952;2023-11-21T16:29:25;37.70;;;19.67;;
51304;SDS011;37392;50.964;6.952;2023-11-21T16:31:51;36.80;;;17.75;;
51304;SDS011;37392;50.964;6.952;2023-11-21T16:34:18;40.65;;;17.92;;
51304;SDS011;37392;50.964;6.952;2023-11-21T16:36:44;32.55;;;16.48;;
51304;SDS011;37392;50.964;6.952;2023-11-21T16:39:11;32.78;;;17.40;;
51304;SDS011;37392;50.964;6.952;2023-11-21T16:41:38;39.38;;;19.73;;
51304;SDS011;37392;50.964;6.952;2023-11-21T16:44:05;33.42;;;18.08;;
51304;SDS011;37392;50.964;6.952;2023-11-21T16:46:37;33.08;;;17.10;;
51304;SDS011;37392;50.964;6.952;2023-11-21T16:49:03;38.95;;;17.75;;
51304;SDS011;37392;50.964;6.952;2023-11-21T16:51:28;45.75;;;22.73;;
51304;SDS011;37392;50.964;6.952;2023-11-21T16:53:55;42.83;;;18.55;;
51304;SDS011;37392;50.964;6.952;2023-11-21T16:56:20;33.13;;;18.10;;
51304;SDS011;37392;50.964;6.952;2023-11-21T16:58:46;32.03;;;14.95;;
51304;SDS011;37392;50.964;6.952;2023-11-21T17:01:15;31.05;;;16.58;;
51304;SDS011;37392;50.964;6.952;2023-11-21T17:03:42;33.45;;;17.40;;
51304;SDS011;37392;50.964;6.952;2023-11-21T17:06:08;35.17;;;17.70;;
51304;SDS011;37392;50.964;6.952;2023-11-21T17:08:34;37.50;;;17.10;;
51304;SDS011;37392;50.964;6.952;2023-11-21T17:10:59;33.55;;;16.88;;
51304;SDS011;37392;50.964;6.952;2023-11-21T17:13:24;33.97;;;16.75;;
51304;SDS011;37392;50.964;6.952;2023-11-21T17:15:50;35.83;;;16.83;;
51304;SDS011;37392;50.964;6.952;2023-11-21T17:18:16;30.08;;;16.15;;
51304;SDS011;37392;50.964;6.952;2023-11-21T17:20:42;27.95;;;15.18;;
51304;SDS011;37392;50.964;6.952;2023-11-21T17:23:08;30.48;;;15.65;;
51304;SDS011;37392;50.964;6.952;2023-11-21T17:25:35;28.17;;;13.80;;
51304;SDS011;37392;50.964;6.952;2023-11-21T17:28:01;30.70;;;14.70;;
51304;SDS011;37392;50.964;6.952;2023-11-21T17:30:28;25.45;;;13.38;;
51304;SDS011;37392;50.964;6.952;2023-11-21T17:32:54;27.75;;;14.15;;
51304;SDS011;37392;50.964;6.952;2023-11-21T17:35:20;25.17;;;12.40;;
51304;SDS011;37392;50.964;6.952;2023-11-21T17:37:47;34.33;;;14.82;;
51304;SDS011;37392;50.964;6.952;2023-11-21T17:40:12;33.15;;;16.55;;
51304;SDS011;37392;50.964;6.952;2023-11-21T17:42:39;27.80;;;13.88;;
51304;SDS011;37392;50.964;6.952;2023-11-21T17:45:05;24.98;;;13.48;;
51304;SDS011;37392;50.964;6.952;2023-11-21T17:47:31;26.55;;;14.25;;
51304;SDS011;37392;50.964;6.952;2023-11-21T17:49:57;29.50;;;15.90;;
51304;SDS011;37392;50.964;6.952;2023-11-21T17:52:25;32.13;;;17.65;;
51304;SDS011;37392;50.964;6.952;2023-11-21T17:54:50;30.35;;;13.85;;
51304;SDS011;37392;50.964;6.952;2023-11-21T17:57:16;27.20;;;15.13;;
51304;SDS011;37392;50.964;6.952;2023-11-21T17:59:42;25.77;;;12.50;;
51304;SDS011;37392;50.964;6.952;2023-11-21T18:02:08;27.40;;;14.27;;
51304;SDS011;37392;50.964;6.952;2023-11-21T18:04:34;29.30;;;15.82;;
51304;SDS011;37392;50.964;6.952;2023-11-21T18:07:03;29.35;;;16.45;;
51304;SDS011;37392;50.964;6.952;2023-11-21T18:09:31;33.22;;;16.33;;
51304;SDS011;37392;50.964;6.952;2023-11-21T18:11:58;24.60;;;13.95;;
51304;SDS011;37392;50.964;6.952;2023-11-21T18:14:24;29.20;;;15.63;;
51304;SDS011;37392;50.964;6.952;2023-11-21T18:16:49;25.30;;;14.63;;
51304;SDS011;37392;50.964;6.952;2023-11-21T18:19:16;34.05;;;17.70;;
51304;SDS011;37392;50.964;6.952;2023-11-21T18:21:44;23.52;;;12.75;;
51304;SDS011;37392;50.964;6.952;2023-11-21T18:24:10;20.85;;;12.82;;
51304;SDS011;37392;50.964;6.952;2023-11-21T18:26:36;34.30;;;16.00;;
51304;SDS011;37392;50.964;6.952;2023-11-21T18:29:02;21.13;;;12.27;;
51304;SDS011;37392;50.964;6.952;2023-11-21T18:31:28;23.85;;;13.32;;
51304;SDS011;37392;50.964;6.952;2023-11-21T18:33:53;20.27;;;12.55;;
51304;SDS011;37392;50.964;6.952;2023-11-21T18:36:19;28.73;;;17.60;;
51304;SDS011;37392;50.964;6.952;2023-11-21T18:38:45;13.02;;;9.50;;
51304;SDS011;37392;50.964;6.952;2023-11-21T18:41:10;14.43;;;7.03;;
51304;SDS011;37392;50.964;6.952;2023-11-21T18:43:39;10.40;;;6.40;;
51304;SDS011;37392;50.964;6.952;2023-11-21T18:46:04;15.32;;;8.48;;
51304;SDS011;37392;50.964;6.952;2023-11-21T18:48:33;21.80;;;9.82;;
51304;SDS011;37392;50.964;6.952;2023-11-21T18:50:58;13.32;;;9.88;;
51304;SDS011;37392;50.964;6.952;2023-11-21T18:53:24;10.90;;;6.88;;
51304;SDS011;37392;50.964;6.952;2023-11-21T18:55:53;10.40;;;6.47;;
51304;SDS011;37392;50.964;6.952;2023-11-21T18:58:18;10.50;;;5.95;;
51304;SDS011;37392;50.964;6.952;2023-11-21T19:00:44;47.97;;;22.27;;
51304;SDS011;37392;50.964;6.952;2023-11-21T19:03:09;21.17;;;10.05;;
51304;SDS011;37392;50.964;6.952;2023-11-21T19:05:36;16.48;;;8.10;;
51304;SDS011;37392;50.964;6.952;2023-11-21T19:08:01;17.70;;;6.80;;
51304;SDS011;37392;50.964;6.952;2023-11-21T19:10:27;12.65;;;6.68;;
51304;SDS011;37392;50.964;6.952;2023-11-21T19:12:54;12.98;;;7.05;;
51304;SDS011;37392;50.964;6.952;2023-11-21T19:15:24;11.30;;;6.75;;
51304;SDS011;37392;50.964;6.952;2023-11-21T19:17:50;11.30;;;6.75;;
51304;SDS011;37392;50.964;6.952;2023-11-21T19:20:18;23.40;;;9.68;;
51304;SDS011;37392;50.964;6.952;2023-11-21T19:22:44;48.00;;;15.30;;
51304;SDS011;37392;50.964;6.952;2023-11-21T19:25:09;39.75;;;13.70;;
51304;SDS011;37392;50.964;6.952;2023-11-21T19:27:37;33.55;;;12.65;;
51304;SDS011;37392;50.964;6.952;2023-11-21T19:30:03;15.50;;;9.07;;
51304;SDS011;37392;50.964;6.952;2023-11-21T19:32:32;16.42;;;9.00;;
51304;SDS011;37392;50.964;6.952;2023-11-21T19:35:00;14.23;;;6.63;;
51304;SDS011;37392;50.964;6.952;2023-11-21T19:37:25;14.32;;;7.60;;
51304;SDS011;37392;50.964;6.952;2023-11-21T19:39:52;9.80;;;5.82;;
51304;SDS011;37392;50.964;6.952;2023-11-21T19:42:17;14.52;;;7.20;;
51304;SDS011;37392;50.964;6.952;2023-11-21T19:44:43;15.10;;;7.57;;
51304;SDS011;37392;50.964;6.952;2023-11-21T19:47:08;17.13;;;8.02;;
51304;SDS011;37392;50.964;6.952;2023-11-21T19:49:34;15.98;;;7.22;;
51304;SDS011;37392;50.964;6.952;2023-11-21T19:52:00;11.13;;;7.15;;
51304;SDS011;37392;50.964;6.952;2023-11-21T19:54:26;12.98;;;6.85;;
51304;SDS011;37392;50.964;6.952;2023-11-21T19:56:51;12.07;;;7.10;;
51304;SDS011;37392;50.964;6.952;2023-11-21T19:59:17;13.57;;;7.30;;
51304;SDS011;37392;50.964;6.952;2023-11-21T20:01:42;13.10;;;7.82;;
51304;SDS011;37392;50.964;6.952;2023-11-21T20:04:08;14.25;;;7.35;;
51304;SDS011;37392;50.964;6.952;2023-11-21T20:06:40;9.48;;;6.68;;
51304;SDS011;37392;50.964;6.952;2023-11-21T20:09:05;15.20;;;6.97;;
51304;SDS011;37392;50.964;6.952;2023-11-21T20:11:34;16.25;;;8.77;;
51304;SDS011;37392;50.964;6.952;2023-11-21T20:14:00;18.23;;;7.80;;
51304;SDS011;37392;50.964;6.952;2023-11-21T20:16:25;11.40;;;6.80;;
51304;SDS011;37392;50.964;6.952;2023-11-21T20:18:51;12.98;;;6.60;;
51304;SDS011;37392;50.964;6.952;2023-11-21T20:21:22;12.75;;;7.85;;
51304;SDS011;37392;50.964;6.952;2023-11-21T20:23:48;19.27;;;9.45;;
51304;SDS011;37392;50.964;6.952;2023-11-21T20:26:24;13.25;;;8.00;;
51304;SDS011;37392;50.964;6.952;2023-11-21T20:28:50;15.43;;;7.75;;
51304;SDS011;37392;50.964;6.952;2023-11-21T20:31:18;16.52;;;9.02;;
51304;SDS011;37392;50.964;6.952;2023-11-21T20:33:44;14.57;;;8.50;;
51304;SDS011;37392;50.964;6.952;2023-11-21T20:36:10;15.65;;;9.88;;
51304;SDS011;37392;50.964;6.952;2023-11-21T20:38:35;13.23;;;7.95;;
51304;SDS011;37392;50.964;6.952;2023-11-21T20:41:03;16.00;;;9.20;;
51304;SDS011;37392;50.964;6.952;2023-11-21T20:43:29;15.00;;;9.13;;
51304;SDS011;37392;50.964;6.952;2023-11-21T20:45:55;15.57;;;9.02;;
51304;SDS011;37392;50.964;6.952;2023-11-21T20:48:20;16.70;;;9.88;;
51304;SDS011;37392;50.964;6.952;2023-11-21T20:50:47;13.30;;;8.23;;
51304;SDS011;37392;50.964;6.952;2023-11-21T20:53:12;13.07;;;8.02;;
51304;SDS011;37392;50.964;6.952;2023-11-21T20:55:38;14.35;;;9.02;;
51304;SDS011;37392;50.964;6.952;2023-11-21T20:58:05;23.13;;;9.27;;
51304;SDS011;37392;50.964;6.952;2023-11-21T21:00:33;13.23;;;7.78;;
51304;SDS011;37392;50.964;6.952;2023-11-21T21:03:00;13.40;;;8.13;;
51304;SDS011;37392;50.964;6.952;2023-11-21T21:05:27;17.52;;;9.70;;
51304;SDS011;37392;50.964;6.952;2023-11-21T21:07:53;24.42;;;11.23;;
51304;SDS011;37392;50.964;6.952;2023-11-21T21:10:21;21.15;;;10.32;;
51304;SDS011;37392;50.964;6.952;2023-11-21T21:12:47;15.88;;;8.93;;
51304;SDS011;37392;50.964;6.952;2023-11-21T21:15:15;16.75;;;9.38;;
51304;SDS011;37392;50.964;6.952;2023-11-21T21:17:41;15.98;;;9.38;;
51304;SDS011;37392;50.964;6.952;2023-11-21T21:20:07;14.52;;;9.35;;
51304;SDS011;37392;50.964;6.952;2023-11-21T21:22:35;18.92;;;9.80;;
51304;SDS011;37392;50.964;6.952;2023-11-21T21:25:04;19.67;;;10.23;;
51304;SDS011;37392;50.964;6.952;2023-11-21T21:27:31;17.30;;;10.20;;
51304;SDS011;37392;50.964;6.952;2023-11-21T21:29:56;18.08;;;10.50;;
51304;SDS011;37392;50.964;6.952;2023-11-21T21:32:25;17.33;;;10.20;;
51304;SDS011;37392;50.964;6.952;2023-11-21T21:34:53;18.42;;;10.80;;
51304;SDS011;37392;50.964;6.952;2023-11-21T21:37:21;18.58;;;9.50;;
51304;SDS011;37392;50.964;6.952;2023-11-21T21:39:47;17.02;;;8.45;;
51304;SDS011;37392;50.964;6.952;2023-11-21T21:42:20;14.20;;;8.88;;
51304;SDS011;37392;50.964;6.952;2023-11-21T21:44:46;15.75;;;9.27;;
51304;SDS011;37392;50.964;6.952;2023-11-21T21:47:12;18.55;;;10.38;;
51304;SDS011;37392;50.964;6.952;2023-11-21T21:49:37;16.60;;;10.02;;
51304;SDS011;37392;50.964;6.952;2023-11-21T21:52:06;18.98;;;9.95;;
51304;SDS011;37392;50.964;6.952;2023-11-21T21:54:32;18.73;;;10.40;;
51304;SDS011;37392;50.964;6.952;2023-11-21T21:56:57;26.63;;;10.25;;
51304;SDS011;37392;50.964;6.952;2023-11-21T21:59:23;17.00;;;8.52;;
51304;SDS011;37392;50.964;6.952;2023-11-21T22:01:48;16.25;;;9.30;;
51304;SDS011;37392;50.964;6.952;2023-11-21T22:04:14;17.13;;;9.05;;
51304;SDS011;37392;50.964;6.952;2023-11-21T22:06:39;12.00;;;8.10;;
51304;SDS011;37392;50.964;6.952;2023-11-21T22:09:05;16.60;;;9.55;;
51304;SDS011;37392;50.964;6.952;2023-11-21T22:11:33;15.85;;;10.05;;
51304;SDS011;37392;50.964;6.952;2023-11-21T22:13:59;12.73;;;8.20;;
51304;SDS011;37392;50.964;6.952;2023-11-21T22:16:26;14.38;;;8.80;;
51304;SDS011;37392;50.964;6.952;2023-11-21T22:18:54;14.35;;;8.55;;
51304;SDS011;37392;50.964;6.952;2023-11-21T22:21:20;15.85;;;8.13;;
51304;SDS011;37392;50.964;6.952;2023-11-21T22:23:46;15.27;;;8.93;;
51304;SDS011;37392;50.964;6.952;2023-11-21T22:26:15;17.15;;;9.25;;
51304;SDS011;37392;50.964;6.952;2023-11-21T22:28:47;16.98;;;10.20;;
51304;SDS011;37392;50.964;6.952;2023-11-21T22:31:18;16.30;;;9.23;;
51304;SDS011;37392;50.964;6.952;2023-11-21T22:33:44;19.15;;;9.30;;
51304;SDS011;37392;50.964;6.952;2023-11-21T22:36:13;17.17;;;8.80;;
51304;SDS011;37392;50.964;6.952;2023-11-21T22:38:39;14.40;;;9.07;;
51304;SDS011;37392;50.964;6.952;2023-11-21T22:41:06;15.88;;;8.30;;
51304;SDS011;37392;50.964;6.952;2023-11-21T22:43:31;19.25;;;9.82;;
51304;SDS011;37392;50.964;6.952;2023-11-21T22:45:56;15.23;;;9.55;;
51304;SDS011;37392;50.964;6.952;2023-11-21T22:48:22;13.65;;;9.93;;
51304;SDS011;37392;50.964;6.952;2023-11-21T22:50:47;17.75;;;9.18;;
51304;SDS011;37392;50.964;6.952;2023-11-21T22:53:13;18.20;;;9.98;;
51304;SDS011;37392;50.964;6.952;2023-11-21T22:55:39;17.30;;;9.27;;
51304;SDS011;37392;50.964;6.952;2023-11-21T22:58:04;15.70;;;9.73;;
51304;SDS011;37392;50.964;6.952;2023-11-21T23:00:30;16.27;;;10.52;;
51304;SDS011;37392;50.964;6.952;2023-11-21T23:02:56;16.60;;;8.95;;
51304;SDS011;37392;50.964;6.952;2023-11-21T23:05:23;19.02;;;9.85;;
51304;SDS011;37392;50.964;6.952;2023-11-21T23:07:48;13.52;;;9.20;;
51304;SDS011;37392;50.964;6.952;2023-11-21T23:10:14;16.73;;;10.23;;
51304;SDS011;37392;50.964;6.952;2023-11-21T23:12:39;16.48;;;9.32;;
51304;SDS011;37392;50.964;6.952;2023-11-21T23:15:05;14.77;;;9.55;;
51304;SDS011;37392;50.964;6.952;2023-11-21T23:17:32;15.20;;;9.60;;
51304;SDS011;37392;50.964;6.952;2023-11-21T23:19:58;17.35;;;11.05;;
51304;SDS011;37392;50.964;6.952;2023-11-21T23:22:24;48.03;;;10.90;;
51304;SDS011;37392;50.964;6.952;2023-11-21T23:24:52;21.90;;;11.80;;
51304;SDS011;37392;50.964;6.952;2023-11-21T23:27:18;18.92;;;10.65;;
51304;SDS011;37392;50.964;6.952;2023-11-21T23:29:43;22.27;;;11.38;;
51304;SDS011;37392;50.964;6.952;2023-11-21T23:32:15;20.20;;;11.63;;
51304;SDS011;37392;50.964;6.952;2023-11-21T23:34:40;18.85;;;11.52;;
51304;SDS011;37392;50.964;6.952;2023-11-21T23:37:06;19.17;;;11.30;;
51304;SDS011;37392;50.964;6.952;2023-11-21T23:39:32;22.35;;;12.30;;
51304;SDS011;37392;50.964;6.952;2023-11-21T23:41:57;23.00;;;12.52;;
51304;SDS011;37392;50.964;6.952;2023-11-21T23:44:23;19.10;;;11.63;;
51304;SDS011;37392;50.964;6.952;2023-11-21T23:46:51;29.73;;;11.98;;
51304;SDS011;37392;50.964;6.952;2023-11-21T23:49:16;22.90;;;12.73;;
51304;SDS011;37392;50.964;6.952;2023-11-21T23:51:41;23.92;;;12.82;;
51304;SDS011;37392;50.964;6.952;2023-11-21T23:54:07;23.27;;;12.05;;
51304;SDS011;37392;50.964;6.952;2023-11-21T23:56:32;21.42;;;12.57;;
51304;SDS011;37392;50.964;6.952;2023-11-21T23:58:58;25.70;;;11.30;;
